Coventry, United Kingdom

5:53 PM BST on July 02, 2015 (GMT +0100)
Coventry | | Change Station
CLOSE
Current Station
Airport
Location: Coventry,
Elevation: 269 ft
Nearby Weather Stations

Elev 269 ft 52.37 °N, 1.48 °W | Updated 33 minutes ago

Light Rain Showers
Light Showers Rain
63 °F
Feels Like 63 °F
N
17
Wind Variable Wind from West

Today
High -- | Low -- °F
--% Chance of Precip.
Yesterday
High -- | Low -- °F
Precip. -- in
4:48 AM 9:30 PM
Full, 100% visible
Pressure 30.09 in
Visibility 5.0 miles
Clouds Few 900 ft
Scattered Clouds 1200 ft
Scattered Clouds 2400 ft
Dew Point 59 °F
Humidity 88%
Rainfall 0.00 in
Snow Depth Not available.
UV 3 out of 12
Pollen Not available.
Air Quality Not available.
Flu Activity Not available.
METAR EGBE 021620Z 28015KT 250V310 8000 -SHRA FEW009 SCT012 SCT024 17/15 Q1019

More Conditions Fewer Conditions

Pressure 30.09 in
Visibility 5.0 miles
Clouds Few 900 ft
Scattered Clouds 1200 ft
Scattered Clouds 2400 ft
Dew Point 59 °F
Humidity 88%
Rainfall 0.00 in
Snow Depth Not available.
UV 3 out of 12
Pollen Not available.
Air Quality Not available.
Flu Activity Not available.
METAR EGBE 021620Z 28015KT 250V310 8000 -SHRA FEW009 SCT012 SCT024 17/15 Q1019

More Conditions Fewer Conditions

10-Day Weather Forecast

×

Almanac

Astronomy

Jul. 02, 2015 Rise Set
Actual Time
Civil Twilight
Nautical Twilight
Astronomical Twilight
Moon
Length of Visible Light
Length of Day
Tomorrow will be .
, % of the Moon is Illuminated

Today's Extremes

Country Highs Country Lows

Community

WunderPhotos

Upload Photos

1,834,498 photos uploaded!

WunderBlogs® & News

Nearby

Air Quality

  Air Quality AQ Index Pollutant
Not available.

Snow Depth

Station Depth Elevation

Earthquake Activity

City Distance Mag. Time & Date
Minimum magnitude displayed is 2.5.

Coastal Water Temperatures

Place Temperature

Stations

Nearby Weather Stations

Station Location Temp. Windchill Dew Point Humidity Wind Precip. Elev Updated Type